createdAt,value
2023-01-28T00:02:16.105Z,31.8
2023-01-28T00:07:39.199Z,30.5
2023-01-28T00:13:01.724Z,31.7
2023-01-28T00:18:23.924Z,32.6
2023-01-28T00:23:46.819Z,30.9
2023-01-28T00:29:10.024Z,30.8
2023-01-28T00:34:33.400Z,31.7
2023-01-28T00:39:56.015Z,21.5
2023-01-28T00:45:18.722Z,29.8
2023-01-28T00:50:25.403Z,33.4
2023-01-28T00:55:48.804Z,31.6
2023-01-28T01:01:11.514Z,29.5
2023-01-28T01:06:36.050Z,32.6
2023-01-28T01:11:59.195Z,32
2023-01-28T01:17:22.426Z,30.6
2023-01-28T01:22:44.275Z,31.9
2023-01-28T01:28:06.685Z,32.6
2023-01-28T01:33:29.589Z,30.9
2023-01-28T01:38:53.121Z,30.9
2023-01-28T01:44:00.664Z,33.4
2023-01-28T01:49:08.577Z,31.4
2023-01-28T01:54:30.619Z,29.4
2023-01-28T01:59:53.532Z,32.7
2023-01-28T02:05:17.048Z,31.9
2023-01-28T02:10:23.740Z,30.6
2023-01-28T02:15:55.274Z,32.1
2023-01-28T02:21:02.089Z,32.3
2023-01-28T02:26:09.364Z,30.9
2023-01-28T02:31:17.186Z,31.5
2023-01-28T02:36:24.469Z,32.9
2023-01-28T02:41:15.730Z,31.3
2023-01-28T02:46:08.168Z,30.3
2023-01-28T02:50:58.983Z,32.8
2023-01-28T02:55:50.533Z,25
2023-01-28T03:00:57.555Z,25
2023-01-28T03:06:05.942Z,31.9
2023-01-28T03:11:13.229Z,32.8
2023-01-28T03:16:35.216Z,31.2
2023-01-28T03:21:57.735Z,31.6
2023-01-28T03:27:19.836Z,32.8
2023-01-28T03:32:44.119Z,31.3
2023-01-28T03:37:51.125Z,31.6
2023-01-28T03:42:57.909Z,32.8
2023-01-28T03:48:05.721Z,31.4
2023-01-28T03:53:29.983Z,30.9
2023-01-28T03:58:53.365Z,33.3
2023-01-28T04:04:15.605Z,31.5
2023-01-28T04:09:38.078Z,30.6
2023-01-28T04:14:13.377Z,33.1
2023-01-28T04:19:04.510Z,31.8
2023-01-28T04:23:56.148Z,29.9
2023-01-28T04:29:03.280Z,32.3
2023-01-28T04:34:26.559Z,32.6
2023-01-28T04:39:48.890Z,31
2023-01-28T04:45:11.409Z,31.9
2023-01-28T04:50:18.279Z,32.7
2023-01-28T04:55:40.608Z,31.1
2023-01-28T05:01:03.473Z,31.3
2023-01-28T05:06:26.355Z,31.1
2023-01-28T05:11:48.059Z,22.9
2023-01-28T05:17:11.097Z,31.4
2023-01-28T05:22:33.984Z,32.9
2023-01-28T05:27:56.192Z,31.3
2023-01-28T05:33:18.976Z,31.4
2023-01-28T05:38:41.057Z,33.3
2023-01-28T05:44:03.273Z,31.4
2023-01-28T05:49:27.980Z,31.1
2023-01-28T05:54:34.671Z,33.3
2023-01-28T05:59:57.384Z,31.6
2023-01-28T06:05:21.043Z,30.6
2023-01-28T06:10:28.462Z,33.1
2023-01-28T06:15:35.416Z,31.9
2023-01-28T06:20:58.284Z,29.6
2023-01-28T06:26:20.272Z,32.6
2023-01-28T06:31:27.036Z,32.3
2023-01-28T06:36:34.167Z,31
2023-01-28T06:41:25.831Z,31.9
2023-01-28T06:46:33.261Z,32.8
2023-01-28T06:51:58.547Z,31.3
2023-01-28T06:57:23.349Z,31.3
2023-01-28T07:02:46.341Z,33.4
2023-01-28T07:08:09.387Z,31.4
2023-01-28T07:13:31.804Z,31.1
2023-01-28T07:18:55.138Z,32.1
2023-01-28T07:24:20.500Z,22
2023-01-28T07:29:43.012Z,30.3
2023-01-28T07:35:06.341Z,33.4
2023-01-28T07:40:28.325Z,31.4
2023-01-28T07:45:50.727Z,29.8
2023-01-28T07:50:57.693Z,32.9
2023-01-28T07:56:23.000Z,32.1
2023-01-28T08:01:45.399Z,29.6
2023-01-28T08:07:08.342Z,32.7
2023-01-28T08:12:31.430Z,32.1
2023-01-28T08:17:53.973Z,29.9
2023-01-28T08:23:16.045Z,32.3
2023-01-28T08:28:39.234Z,32.7
2023-01-28T08:34:02.677Z,30.7
2023-01-28T08:39:24.499Z,31.9
2023-01-28T08:44:46.901Z,32.9
2023-01-28T08:50:12.425Z,30.9
2023-01-28T08:55:37.349Z,31.6
2023-01-28T09:01:02.672Z,32.9
2023-01-28T09:06:44.029Z,30.9
2023-01-28T09:12:06.001Z,31.6
2023-01-28T09:17:29.051Z,32.4
2023-01-28T09:22:53.273Z,22.2
2023-01-28T09:28:01.084Z,30.4
2023-01-28T09:33:26.230Z,33.5
2023-01-28T09:38:48.847Z,31.4
2023-01-28T09:44:11.112Z,30.8
2023-01-28T09:49:34.331Z,33.4
2023-01-28T09:54:58.109Z,31.4
2023-01-28T10:00:21.208Z,30.5
2023-01-28T10:05:45.052Z,33.3
2023-01-28T10:11:08.144Z,31.5
2023-01-28T10:16:30.484Z,29.8
2023-01-28T10:22:10.378Z,32.9
2023-01-28T10:27:32.756Z,32.1
2023-01-28T10:32:55.690Z,30.8
2023-01-28T10:38:18.702Z,27.1
2023-01-28T10:43:55.307Z,26.3
2023-01-28T10:49:17.631Z,25.1
2023-01-28T10:54:40.673Z,25.6
2023-01-28T10:59:48.110Z,31.5
2023-01-28T11:05:11.316Z,33.4
2023-01-28T11:10:49.017Z,31.9
2023-01-28T11:15:56.118Z,30.3
2023-01-28T11:21:19.142Z,26.4
2023-01-28T11:26:41.068Z,25.7
2023-01-28T11:32:04.421Z,24.8
2023-01-28T11:37:28.670Z,27.6
2023-01-28T11:42:53.369Z,32.1
2023-01-28T11:48:20.311Z,33.8
2023-01-28T11:54:12.691Z,31.9
2023-01-28T11:59:35.339Z,29.6
2023-01-28T12:04:58.676Z,26.8
2023-01-28T12:10:21.666Z,26
2023-01-28T12:15:44.198Z,25.4
2023-01-28T12:20:51.360Z,24.8
2023-01-28T12:26:14.330Z,24.2
2023-01-28T12:31:38.210Z,23.5
2023-01-28T12:37:01.333Z,22.9
2023-01-28T12:42:23.904Z,22.4
2023-01-28T12:47:46.430Z,22.2
2023-01-28T12:53:09.645Z,22
2023-01-28T12:58:32.238Z,21.8
2023-01-28T13:03:56.115Z,21.7
2023-01-28T13:09:18.497Z,21.5
2023-01-28T13:14:41.468Z,21.3
2023-01-28T13:20:14.758Z,21.2
2023-01-28T13:25:44.213Z,21.1
2023-01-28T13:31:09.370Z,20.9
2023-01-28T13:36:32.104Z,20.8
2023-01-28T13:41:54.414Z,20.6
2023-01-28T13:47:17.132Z,20.5
2023-01-28T13:52:40.239Z,20.4
2023-01-28T13:58:01.389Z,20.3
2023-01-28T14:03:26.193Z,20.2
2023-01-28T14:08:49.399Z,20.1
2023-01-28T14:14:13.258Z,20
2023-01-28T14:19:36.147Z,19.9
2023-01-28T14:24:59.753Z,19.8
2023-01-28T14:30:22.667Z,19.7
2023-01-28T14:35:48.476Z,19.6
2023-01-28T14:40:56.025Z,19.5
2023-01-28T14:46:20.756Z,19.5
2023-01-28T14:51:43.197Z,19.4
2023-01-28T14:57:08.552Z,19.4
2023-01-28T15:02:31.266Z,19.4
2023-01-28T15:08:08.744Z,19.3
2023-01-28T15:13:31.478Z,19.3
2023-01-28T15:18:54.909Z,19.3
2023-01-28T15:24:18.806Z,19.2
2023-01-28T15:29:42.891Z,19.2
2023-01-28T15:35:07.393Z,19.1
2023-01-28T15:40:30.656Z,26.8
2023-01-28T15:45:53.161Z,32.4
2023-01-28T15:51:16.317Z,34.5
2023-01-28T15:56:42.762Z,35.6
2023-01-28T16:02:06.167Z,36.2
2023-01-28T16:07:16.671Z,36.7
2023-01-28T16:12:39.140Z,36.4
2023-01-28T16:17:47.867Z,37.4
2023-01-28T16:23:11.530Z,36.4
2023-01-28T16:28:35.271Z,35.6
2023-01-28T16:34:01.507Z,36.4
2023-01-28T16:39:04.684Z,37.1
2023-01-28T16:44:01.016Z,37.6
2023-01-28T16:49:32.862Z,37.2
2023-01-28T16:54:56.389Z,36.8
2023-01-28T17:00:39.911Z,37.5
2023-01-28T17:06:03.362Z,37.4
2023-01-28T17:11:26.714Z,36.7
2023-01-28T17:16:51.220Z,36.8
2023-01-28T17:22:00.377Z,37.6
2023-01-28T17:27:08.711Z,36.5
2023-01-28T17:32:34.514Z,36.2
2023-01-28T17:37:58.209Z,36
2023-01-28T17:43:23.830Z,34.8
2023-01-28T17:48:49.533Z,37.5
2023-01-28T17:54:19.312Z,38.1
2023-01-28T17:59:51.083Z,38.4
2023-01-28T18:05:22.392Z,37.4
2023-01-28T18:10:48.871Z,37.2
2023-01-28T18:16:16.631Z,38.4
2023-01-28T18:21:52.882Z,37.6
2023-01-28T18:27:24.027Z,37.9
2023-01-28T18:33:00.735Z,38.8
2023-01-28T18:38:14.759Z,38.9
2023-01-28T18:43:30.393Z,38
2023-01-28T18:48:50.702Z,38.6
2023-01-28T18:54:45.882Z,39
2023-01-28T19:00:21.086Z,38.4
2023-01-28T19:05:46.845Z,38.3
2023-01-28T19:11:08.210Z,38.1
2023-01-28T19:16:46.624Z,37.6
2023-01-28T19:22:24.449Z,38.8
2023-01-28T19:28:11.967Z,37.6
2023-01-28T19:33:49.700Z,38.7
2023-01-28T19:39:26.972Z,37.3
2023-01-28T19:45:00.602Z,38.2
2023-01-28T19:50:21.151Z,37.8
2023-01-28T19:55:39.360Z,36.9
2023-01-28T20:00:58.549Z,36.4
2023-01-28T20:06:30.554Z,36.8
2023-01-28T20:12:11.969Z,35.4
2023-01-28T20:17:50.712Z,34.1
2023-01-28T20:23:29.484Z,33.1
2023-01-28T20:29:05.438Z,32.1
2023-01-28T20:34:58.239Z,31.2
2023-01-28T20:40:34.426Z,30.4
2023-01-28T20:45:54.831Z,29.8
2023-01-28T20:51:29.341Z,29.4
2023-01-28T20:57:00.164Z,29
2023-01-28T21:02:34.981Z,28.6
2023-01-28T21:07:39.276Z,28.2
2023-01-28T21:13:09.068Z,27.9
2023-01-28T21:23:10.734Z,26.8
2023-01-28T21:28:19.015Z,26.3
2023-01-28T21:33:26.112Z,27.3
2023-01-28T21:38:54.379Z,32.5
2023-01-28T21:44:22.246Z,31.5
2023-01-28T21:49:14.657Z,30.3
2023-01-28T21:54:24.489Z,27.4
2023-01-28T21:59:18.039Z,26.6
2023-01-28T22:04:40.794Z,31.6
2023-01-28T22:09:47.985Z,32.1
2023-01-28T22:14:40.228Z,30.7
2023-01-28T22:19:31.755Z,27.8
2023-01-28T22:24:42.417Z,26.6
2023-01-28T22:29:49.457Z,30.6
2023-01-28T22:34:57.067Z,33.1
2023-01-28T22:39:48.930Z,31.4
2023-01-28T22:44:55.712Z,30.1
2023-01-28T22:50:02.827Z,27.1
2023-01-28T22:55:09.100Z,29
2023-01-28T23:00:32.023Z,32.6
2023-01-28T23:05:39.199Z,32
2023-01-28T23:10:45.804Z,30.8
2023-01-28T23:16:08.263Z,31.7
2023-01-28T23:21:31.355Z,32.8
2023-01-28T23:26:23.726Z,31.3
2023-01-28T23:31:30.852Z,29.4
2023-01-28T23:36:37.962Z,32.4
2023-01-28T23:41:45.197Z,32.3
2023-01-28T23:47:13.255Z,30.9
2023-01-28T23:52:36.478Z,30.9
2023-01-28T23:57:58.099Z,33.2
